sensor_id;sensor_type;location;lat;lon;timestamp;temperature;humidity
40638;DHT22;26336;44.696;10.622;2022-08-19T00:00:41;22.40;99.90
40638;DHT22;26336;44.696;10.622;2022-08-19T00:03:46;22.50;99.90
40638;DHT22;26336;44.696;10.622;2022-08-19T00:06:50;22.50;99.90
40638;DHT22;26336;44.696;10.622;2022-08-19T00:09:54;22.50;99.90
40638;DHT22;26336;44.696;10.622;2022-08-19T00:12:58;22.50;99.90
40638;DHT22;26336;44.696;10.622;2022-08-19T00:16:03;22.40;99.90
40638;DHT22;26336;44.696;10.622;2022-08-19T00:19:07;22.40;99.90
40638;DHT22;26336;44.696;10.622;2022-08-19T00:22:11;22.40;99.90
40638;DHT22;26336;44.696;10.622;2022-08-19T00:25:16;22.40;99.90
40638;DHT22;26336;44.696;10.622;2022-08-19T00:28:21;22.40;99.90
40638;DHT22;26336;44.696;10.622;2022-08-19T00:31:25;22.40;99.90
40638;DHT22;26336;44.696;10.622;2022-08-19T00:34:32;22.40;99.90
40638;DHT22;26336;44.696;10.622;2022-08-19T00:37:36;22.50;99.90
40638;DHT22;26336;44.696;10.622;2022-08-19T00:40:43;22.40;99.90
40638;DHT22;26336;44.696;10.622;2022-08-19T00:47:09;22.40;99.90
40638;DHT22;26336;44.696;10.622;2022-08-19T00:50:17;22.40;99.90
40638;DHT22;26336;44.696;10.622;2022-08-19T00:53:24;22.40;99.90
40638;DHT22;26336;44.696;10.622;2022-08-19T00:56:30;22.40;99.90
40638;DHT22;26336;44.696;10.622;2022-08-19T00:59:36;22.40;99.90
40638;DHT22;26336;44.696;10.622;2022-08-19T01:02:43;22.40;99.90
40638;DHT22;26336;44.696;10.622;2022-08-19T01:05:48;22.40;99.90
40638;DHT22;26336;44.696;10.622;2022-08-19T01:08:54;22.30;99.90
40638;DHT22;26336;44.696;10.622;2022-08-19T01:11:59;22.30;99.90
40638;DHT22;26336;44.696;10.622;2022-08-19T01:15:06;22.40;99.90
40638;DHT22;26336;44.696;10.622;2022-08-19T01:18:13;22.30;99.90
40638;DHT22;26336;44.696;10.622;2022-08-19T01:24:33;22.30;99.90
40638;DHT22;26336;44.696;10.622;2022-08-19T01:27:39;22.30;99.90
40638;DHT22;26336;44.696;10.622;2022-08-19T01:30:44;22.20;99.90
40638;DHT22;26336;44.696;10.622;2022-08-19T01:33:49;22.20;99.90
40638;DHT22;26336;44.696;10.622;2022-08-19T01:36:54;22.20;99.90
40638;DHT22;26336;44.696;10.622;2022-08-19T01:39:58;22.10;99.90
40638;DHT22;26336;44.696;10.622;2022-08-19T01:43:02;22.00;99.90
40638;DHT22;26336;44.696;10.622;2022-08-19T01:46:06;21.80;99.90
40638;DHT22;26336;44.696;10.622;2022-08-19T01:49:11;21.70;99.90
40638;DHT22;26336;44.696;10.622;2022-08-19T01:52:15;21.60;99.90
40638;DHT22;26336;44.696;10.622;2022-08-19T01:55:21;21.70;99.90
40638;DHT22;26336;44.696;10.622;2022-08-19T01:58:32;21.60;99.90
40638;DHT22;26336;44.696;10.622;2022-08-19T02:01:40;21.50;99.90
40638;DHT22;26336;44.696;10.622;2022-08-19T02:04:43;21.40;99.90
40638;DHT22;26336;44.696;10.622;2022-08-19T02:07:49;21.20;99.90
40638;DHT22;26336;44.696;10.622;2022-08-19T02:10:54;21.20;99.90
40638;DHT22;26336;44.696;10.622;2022-08-19T02:14:01;21.10;99.90
40638;DHT22;26336;44.696;10.622;2022-08-19T02:17:06;21.00;99.90
40638;DHT22;26336;44.696;10.622;2022-08-19T02:20:11;20.90;99.90
40638;DHT22;26336;44.696;10.622;2022-08-19T02:23:16;20.80;99.90
40638;DHT22;26336;44.696;10.622;2022-08-19T02:26:20;20.80;99.90
40638;DHT22;26336;44.696;10.622;2022-08-19T02:29:24;20.80;99.90
40638;DHT22;26336;44.696;10.622;2022-08-19T02:32:28;20.70;99.90
40638;DHT22;26336;44.696;10.622;2022-08-19T02:35:34;20.70;99.90
40638;DHT22;26336;44.696;10.622;2022-08-19T02:38:38;20.60;99.90
40638;DHT22;26336;44.696;10.622;2022-08-19T02:41:43;20.60;99.90
40638;DHT22;26336;44.696;10.622;2022-08-19T02:44:46;20.70;99.90
40638;DHT22;26336;44.696;10.622;2022-08-19T02:47:51;20.80;99.90
40638;DHT22;26336;44.696;10.622;2022-08-19T02:50:54;20.80;99.90
40638;DHT22;26336;44.696;10.622;2022-08-19T02:53:59;20.70;99.90
40638;DHT22;26336;44.696;10.622;2022-08-19T02:57:04;20.70;99.90
40638;DHT22;26336;44.696;10.622;2022-08-19T03:00:08;20.70;99.90
40638;DHT22;26336;44.696;10.622;2022-08-19T03:03:16;20.70;99.90
40638;DHT22;26336;44.696;10.622;2022-08-19T03:06:20;20.80;99.90
40638;DHT22;26336;44.696;10.622;2022-08-19T03:09:25;20.90;99.90
40638;DHT22;26336;44.696;10.622;2022-08-19T03:12:29;20.90;99.90
40638;DHT22;26336;44.696;10.622;2022-08-19T03:15:33;20.80;99.90
40638;DHT22;26336;44.696;10.622;2022-08-19T03:18:38;20.90;99.90
40638;DHT22;26336;44.696;10.622;2022-08-19T03:21:43;21.00;99.90
40638;DHT22;26336;44.696;10.622;2022-08-19T03:24:48;21.10;99.90
40638;DHT22;26336;44.696;10.622;2022-08-19T03:27:52;21.00;99.90
40638;DHT22;26336;44.696;10.622;2022-08-19T03:30:58;20.90;99.90
40638;DHT22;26336;44.696;10.622;2022-08-19T03:34:03;20.80;99.90
40638;DHT22;26336;44.696;10.622;2022-08-19T03:37:10;20.80;99.90
40638;DHT22;26336;44.696;10.622;2022-08-19T03:40:15;20.90;99.90
40638;DHT22;26336;44.696;10.622;2022-08-19T03:43:19;20.90;99.90
40638;DHT22;26336;44.696;10.622;2022-08-19T03:46:26;21.00;99.90
40638;DHT22;26336;44.696;10.622;2022-08-19T03:49:32;21.00;99.90
40638;DHT22;26336;44.696;10.622;2022-08-19T03:52:38;20.90;99.90
40638;DHT22;26336;44.696;10.622;2022-08-19T03:55:43;20.90;99.90
40638;DHT22;26336;44.696;10.622;2022-08-19T03:58:48;20.90;99.90
40638;DHT22;26336;44.696;10.622;2022-08-19T04:01:54;21.00;99.90
40638;DHT22;26336;44.696;10.622;2022-08-19T04:04:58;21.00;99.90
40638;DHT22;26336;44.696;10.622;2022-08-19T04:08:02;21.00;99.90
40638;DHT22;26336;44.696;10.622;2022-08-19T04:11:18;21.10;99.90
40638;DHT22;26336;44.696;10.622;2022-08-19T04:14:27;21.10;99.90
40638;DHT22;26336;44.696;10.622;2022-08-19T04:17:36;21.10;99.90
40638;DHT22;26336;44.696;10.622;2022-08-19T04:20:45;21.10;99.90
40638;DHT22;26336;44.696;10.622;2022-08-19T04:23:50;21.10;99.90
40638;DHT22;26336;44.696;10.622;2022-08-19T04:26:54;21.10;99.90
40638;DHT22;26336;44.696;10.622;2022-08-19T04:29:59;21.10;99.90
40638;DHT22;26336;44.696;10.622;2022-08-19T04:33:03;21.00;99.90
40638;DHT22;26336;44.696;10.622;2022-08-19T04:36:19;21.00;99.90
40638;DHT22;26336;44.696;10.622;2022-08-19T04:39:27;21.00;99.90
40638;DHT22;26336;44.696;10.622;2022-08-19T04:42:57;21.00;99.90
40638;DHT22;26336;44.696;10.622;2022-08-19T04:46:10;20.90;99.90
40638;DHT22;26336;44.696;10.622;2022-08-19T04:49:15;20.90;99.90
40638;DHT22;26336;44.696;10.622;2022-08-19T04:52:20;20.60;99.90
40638;DHT22;26336;44.696;10.622;2022-08-19T04:55:24;20.40;99.90
40638;DHT22;26336;44.696;10.622;2022-08-19T04:58:31;20.40;99.90
40638;DHT22;26336;44.696;10.622;2022-08-19T05:01:36;20.40;99.90
40638;DHT22;26336;44.696;10.622;2022-08-19T05:04:40;20.30;99.90
40638;DHT22;26336;44.696;10.622;2022-08-19T05:07:44;20.30;99.90
40638;DHT22;26336;44.696;10.622;2022-08-19T05:10:50;20.30;99.90
40638;DHT22;26336;44.696;10.622;2022-08-19T05:13:55;20.30;99.90
40638;DHT22;26336;44.696;10.622;2022-08-19T05:17:00;20.30;99.90
40638;DHT22;26336;44.696;10.622;2022-08-19T05:20:08;20.30;99.90
40638;DHT22;26336;44.696;10.622;2022-08-19T05:23:31;20.30;99.90
40638;DHT22;26336;44.696;10.622;2022-08-19T05:26:41;20.20;99.90
40638;DHT22;26336;44.696;10.622;2022-08-19T05:29:46;20.10;99.90
40638;DHT22;26336;44.696;10.622;2022-08-19T05:32:52;20.20;99.90
40638;DHT22;26336;44.696;10.622;2022-08-19T05:36:01;20.10;99.90
40638;DHT22;26336;44.696;10.622;2022-08-19T05:39:07;20.10;99.90
40638;DHT22;26336;44.696;10.622;2022-08-19T05:42:11;20.10;99.90
40638;DHT22;26336;44.696;10.622;2022-08-19T05:45:15;20.20;99.90
40638;DHT22;26336;44.696;10.622;2022-08-19T05:48:19;20.20;99.90
40638;DHT22;26336;44.696;10.622;2022-08-19T05:51:27;20.20;99.90
40638;DHT22;26336;44.696;10.622;2022-08-19T05:54:31;20.20;99.90
40638;DHT22;26336;44.696;10.622;2022-08-19T05:57:38;20.10;99.90
40638;DHT22;26336;44.696;10.622;2022-08-19T06:00:43;20.00;99.90
40638;DHT22;26336;44.696;10.622;2022-08-19T06:03:48;19.90;99.90
40638;DHT22;26336;44.696;10.622;2022-08-19T06:06:53;19.80;99.90
40638;DHT22;26336;44.696;10.622;2022-08-19T06:09:57;19.80;99.90
40638;DHT22;26336;44.696;10.622;2022-08-19T06:13:02;19.70;99.90
40638;DHT22;26336;44.696;10.622;2022-08-19T06:16:06;19.60;99.90
40638;DHT22;26336;44.696;10.622;2022-08-19T06:19:14;19.50;99.90
40638;DHT22;26336;44.696;10.622;2022-08-19T06:22:19;19.50;99.90
40638;DHT22;26336;44.696;10.622;2022-08-19T06:25:23;19.50;99.90
40638;DHT22;26336;44.696;10.622;2022-08-19T06:28:27;19.60;99.90
40638;DHT22;26336;44.696;10.622;2022-08-19T06:31:31;19.60;99.90
40638;DHT22;26336;44.696;10.622;2022-08-19T06:34:37;19.50;99.90
40638;DHT22;26336;44.696;10.622;2022-08-19T06:37:41;19.60;99.90
40638;DHT22;26336;44.696;10.622;2022-08-19T06:40:46;19.50;99.90
40638;DHT22;26336;44.696;10.622;2022-08-19T06:43:51;19.50;99.90
40638;DHT22;26336;44.696;10.622;2022-08-19T06:46:55;19.50;99.90
40638;DHT22;26336;44.696;10.622;2022-08-19T06:50:00;19.40;99.90
40638;DHT22;26336;44.696;10.622;2022-08-19T06:53:07;19.40;99.90
40638;DHT22;26336;44.696;10.622;2022-08-19T06:56:11;19.30;99.90
40638;DHT22;26336;44.696;10.622;2022-08-19T06:59:18;19.30;99.90
40638;DHT22;26336;44.696;10.622;2022-08-19T07:02:23;19.40;99.90
40638;DHT22;26336;44.696;10.622;2022-08-19T07:05:30;19.40;99.90
40638;DHT22;26336;44.696;10.622;2022-08-19T07:08:35;19.50;99.90
40638;DHT22;26336;44.696;10.622;2022-08-19T07:11:45;19.50;99.90
40638;DHT22;26336;44.696;10.622;2022-08-19T07:14:50;19.60;99.90
40638;DHT22;26336;44.696;10.622;2022-08-19T07:17:54;19.60;99.90
40638;DHT22;26336;44.696;10.622;2022-08-19T07:21:11;19.60;99.90
40638;DHT22;26336;44.696;10.622;2022-08-19T07:24:16;19.60;99.90
40638;DHT22;26336;44.696;10.622;2022-08-19T07:27:20;19.70;99.90
40638;DHT22;26336;44.696;10.622;2022-08-19T07:30:25;19.70;99.90
40638;DHT22;26336;44.696;10.622;2022-08-19T07:33:30;19.70;99.90
40638;DHT22;26336;44.696;10.622;2022-08-19T07:36:38;19.70;99.90
40638;DHT22;26336;44.696;10.622;2022-08-19T07:39:42;19.80;99.90
40638;DHT22;26336;44.696;10.622;2022-08-19T07:42:46;19.90;99.90
40638;DHT22;26336;44.696;10.622;2022-08-19T07:45:51;19.90;99.90
40638;DHT22;26336;44.696;10.622;2022-08-19T07:48:57;20.00;99.90
40638;DHT22;26336;44.696;10.622;2022-08-19T07:52:05;20.00;99.90
40638;DHT22;26336;44.696;10.622;2022-08-19T07:55:10;20.10;99.90
40638;DHT22;26336;44.696;10.622;2022-08-19T07:58:18;20.20;99.90
40638;DHT22;26336;44.696;10.622;2022-08-19T08:01:25;20.20;99.90
40638;DHT22;26336;44.696;10.622;2022-08-19T08:04:30;20.30;99.90
40638;DHT22;26336;44.696;10.622;2022-08-19T08:07:53;20.30;99.90
40638;DHT22;26336;44.696;10.622;2022-08-19T08:11:17;20.30;99.90
40638;DHT22;26336;44.696;10.622;2022-08-19T08:14:26;20.30;99.90
40638;DHT22;26336;44.696;10.622;2022-08-19T08:17:33;20.30;99.90
40638;DHT22;26336;44.696;10.622;2022-08-19T08:20:38;20.30;99.90
40638;DHT22;26336;44.696;10.622;2022-08-19T08:23:42;20.40;99.90
40638;DHT22;26336;44.696;10.622;2022-08-19T08:26:46;20.40;99.90
40638;DHT22;26336;44.696;10.622;2022-08-19T08:29:50;20.30;99.90
40638;DHT22;26336;44.696;10.622;2022-08-19T08:32:55;20.40;99.90
40638;DHT22;26336;44.696;10.622;2022-08-19T08:35:59;20.50;99.90
40638;DHT22;26336;44.696;10.622;2022-08-19T08:39:03;20.50;99.90
40638;DHT22;26336;44.696;10.622;2022-08-19T08:42:24;20.60;99.90
40638;DHT22;26336;44.696;10.622;2022-08-19T08:45:30;20.60;99.90
40638;DHT22;26336;44.696;10.622;2022-08-19T08:51:52;20.80;99.90
40638;DHT22;26336;44.696;10.622;2022-08-19T08:54:59;20.90;99.90
40638;DHT22;26336;44.696;10.622;2022-08-19T08:58:11;20.90;99.90
40638;DHT22;26336;44.696;10.622;2022-08-19T09:01:17;21.00;99.90
40638;DHT22;26336;44.696;10.622;2022-08-19T09:04:22;21.10;99.90
40638;DHT22;26336;44.696;10.622;2022-08-19T09:10:56;21.10;99.90
40638;DHT22;26336;44.696;10.622;2022-08-19T09:17:13;21.20;99.90
40638;DHT22;26336;44.696;10.622;2022-08-19T09:20:23;21.30;99.90
40638;DHT22;26336;44.696;10.622;2022-08-19T09:23:27;21.40;99.90
40638;DHT22;26336;44.696;10.622;2022-08-19T09:26:32;21.60;99.90
40638;DHT22;26336;44.696;10.622;2022-08-19T09:29:36;21.50;99.90
40638;DHT22;26336;44.696;10.622;2022-08-19T09:32:40;21.60;99.90
40638;DHT22;26336;44.696;10.622;2022-08-19T09:35:46;21.60;99.90
40638;DHT22;26336;44.696;10.622;2022-08-19T09:38:50;21.60;99.90
40638;DHT22;26336;44.696;10.622;2022-08-19T09:41:55;21.60;99.90
40638;DHT22;26336;44.696;10.622;2022-08-19T09:44:59;21.60;99.90
40638;DHT22;26336;44.696;10.622;2022-08-19T09:48:03;21.60;99.90
40638;DHT22;26336;44.696;10.622;2022-08-19T09:51:13;21.70;99.90
40638;DHT22;26336;44.696;10.622;2022-08-19T09:54:20;21.70;99.90
40638;DHT22;26336;44.696;10.622;2022-08-19T09:57:24;21.70;99.90
40638;DHT22;26336;44.696;10.622;2022-08-19T10:00:29;21.80;99.90
40638;DHT22;26336;44.696;10.622;2022-08-19T10:03:35;21.80;99.90
40638;DHT22;26336;44.696;10.622;2022-08-19T10:06:40;21.90;99.90
40638;DHT22;26336;44.696;10.622;2022-08-19T10:09:45;21.90;99.90
40638;DHT22;26336;44.696;10.622;2022-08-19T10:12:51;22.00;99.90
40638;DHT22;26336;44.696;10.622;2022-08-19T10:16:02;22.10;99.90
40638;DHT22;26336;44.696;10.622;2022-08-19T10:19:06;22.10;99.90
40638;DHT22;26336;44.696;10.622;2022-08-19T10:22:10;22.20;99.90
40638;DHT22;26336;44.696;10.622;2022-08-19T10:25:18;22.10;99.90
40638;DHT22;26336;44.696;10.622;2022-08-19T10:28:21;22.20;99.90
40638;DHT22;26336;44.696;10.622;2022-08-19T10:31:30;22.30;99.90
40638;DHT22;26336;44.696;10.622;2022-08-19T10:34:39;22.40;99.90
40638;DHT22;26336;44.696;10.622;2022-08-19T10:37:43;22.40;99.90
40638;DHT22;26336;44.696;10.622;2022-08-19T10:40:47;22.40;99.90
40638;DHT22;26336;44.696;10.622;2022-08-19T10:43:55;22.30;99.90
40638;DHT22;26336;44.696;10.622;2022-08-19T10:47:03;22.40;99.90
40638;DHT22;26336;44.696;10.622;2022-08-19T10:50:07;22.40;99.90
40638;DHT22;26336;44.696;10.622;2022-08-19T10:53:29;22.40;99.90
40638;DHT22;26336;44.696;10.622;2022-08-19T10:56:34;22.40;99.90
40638;DHT22;26336;44.696;10.622;2022-08-19T10:59:56;22.40;99.90
40638;DHT22;26336;44.696;10.622;2022-08-19T11:03:00;22.40;99.90
40638;DHT22;26336;44.696;10.622;2022-08-19T11:06:09;22.40;99.90
40638;DHT22;26336;44.696;10.622;2022-08-19T11:09:15;22.50;99.90
40638;DHT22;26336;44.696;10.622;2022-08-19T11:12:20;22.60;99.90
40638;DHT22;26336;44.696;10.622;2022-08-19T11:15:24;22.80;99.90
40638;DHT22;26336;44.696;10.622;2022-08-19T11:18:29;22.90;99.90
40638;DHT22;26336;44.696;10.622;2022-08-19T11:21:36;22.90;99.90
40638;DHT22;26336;44.696;10.622;2022-08-19T11:24:41;22.90;99.90
40638;DHT22;26336;44.696;10.622;2022-08-19T11:27:45;22.90;99.90
40638;DHT22;26336;44.696;10.622;2022-08-19T11:30:50;23.00;99.90
40638;DHT22;26336;44.696;10.622;2022-08-19T11:33:56;23.10;99.90
40638;DHT22;26336;44.696;10.622;2022-08-19T11:37:01;23.10;99.90
40638;DHT22;26336;44.696;10.622;2022-08-19T11:40:07;23.20;99.90
40638;DHT22;26336;44.696;10.622;2022-08-19T11:43:12;23.20;99.90
40638;DHT22;26336;44.696;10.622;2022-08-19T11:46:16;23.40;99.90
40638;DHT22;26336;44.696;10.622;2022-08-19T11:49:20;23.50;99.90
40638;DHT22;26336;44.696;10.622;2022-08-19T11:52:25;23.60;99.90
40638;DHT22;26336;44.696;10.622;2022-08-19T11:55:29;23.70;99.90
40638;DHT22;26336;44.696;10.622;2022-08-19T11:58:33;23.70;99.90
40638;DHT22;26336;44.696;10.622;2022-08-19T12:01:38;23.70;99.90
40638;DHT22;26336;44.696;10.622;2022-08-19T12:04:47;23.70;99.90
40638;DHT22;26336;44.696;10.622;2022-08-19T12:07:51;23.60;99.90
40638;DHT22;26336;44.696;10.622;2022-08-19T12:10:55;23.60;99.90
40638;DHT22;26336;44.696;10.622;2022-08-19T12:14:00;23.60;99.90
40638;DHT22;26336;44.696;10.622;2022-08-19T12:17:04;23.60;99.90
40638;DHT22;26336;44.696;10.622;2022-08-19T12:20:13;23.60;99.90
40638;DHT22;26336;44.696;10.622;2022-08-19T12:23:19;23.60;99.90
40638;DHT22;26336;44.696;10.622;2022-08-19T12:26:24;23.60;99.90
40638;DHT22;26336;44.696;10.622;2022-08-19T12:29:29;23.60;99.90
40638;DHT22;26336;44.696;10.622;2022-08-19T12:32:34;23.60;99.90
40638;DHT22;26336;44.696;10.622;2022-08-19T12:35:41;23.60;99.90
40638;DHT22;26336;44.696;10.622;2022-08-19T12:38:46;23.60;99.90
40638;DHT22;26336;44.696;10.622;2022-08-19T12:41:51;23.60;99.90
40638;DHT22;26336;44.696;10.622;2022-08-19T12:44:55;23.60;99.90
40638;DHT22;26336;44.696;10.622;2022-08-19T12:47:59;23.60;99.90
40638;DHT22;26336;44.696;10.622;2022-08-19T12:51:09;23.60;99.90
40638;DHT22;26336;44.696;10.622;2022-08-19T12:54:16;23.60;99.90
40638;DHT22;26336;44.696;10.622;2022-08-19T12:57:23;23.50;99.90
40638;DHT22;26336;44.696;10.622;2022-08-19T13:00:28;23.60;99.90
40638;DHT22;26336;44.696;10.622;2022-08-19T13:03:32;23.60;99.90
40638;DHT22;26336;44.696;10.622;2022-08-19T13:06:37;23.60;99.90
40638;DHT22;26336;44.696;10.622;2022-08-19T13:09:41;23.60;99.90
40638;DHT22;26336;44.696;10.622;2022-08-19T13:12:47;23.50;99.90
40638;DHT22;26336;44.696;10.622;2022-08-19T13:15:52;23.50;99.90
40638;DHT22;26336;44.696;10.622;2022-08-19T13:18:57;23.50;99.90
40638;DHT22;26336;44.696;10.622;2022-08-19T13:22:01;23.50;99.90
40638;DHT22;26336;44.696;10.622;2022-08-19T13:25:06;23.50;99.90
40638;DHT22;26336;44.696;10.622;2022-08-19T13:28:10;23.50;99.90
40638;DHT22;26336;44.696;10.622;2022-08-19T13:31:16;23.50;99.90
40638;DHT22;26336;44.696;10.622;2022-08-19T13:34:39;23.50;99.90
40638;DHT22;26336;44.696;10.622;2022-08-19T13:37:43;23.50;99.90
40638;DHT22;26336;44.696;10.622;2022-08-19T13:40:49;23.60;99.90
40638;DHT22;26336;44.696;10.622;2022-08-19T13:43:54;23.50;99.90
40638;DHT22;26336;44.696;10.622;2022-08-19T13:47:06;23.60;99.90
40638;DHT22;26336;44.696;10.622;2022-08-19T13:50:11;23.50;99.90
40638;DHT22;26336;44.696;10.622;2022-08-19T13:53:17;23.60;99.90
40638;DHT22;26336;44.696;10.622;2022-08-19T13:56:21;23.50;99.90
40638;DHT22;26336;44.696;10.622;2022-08-19T13:59:25;23.50;99.90
40638;DHT22;26336;44.696;10.622;2022-08-19T14:02:28;23.50;99.90
40638;DHT22;26336;44.696;10.622;2022-08-19T14:05:33;23.50;99.90
40638;DHT22;26336;44.696;10.622;2022-08-19T14:08:37;23.60;99.90
40638;DHT22;26336;44.696;10.622;2022-08-19T14:11:42;23.50;99.90
40638;DHT22;26336;44.696;10.622;2022-08-19T14:14:49;23.60;99.90
40638;DHT22;26336;44.696;10.622;2022-08-19T14:17:53;23.60;99.90
40638;DHT22;26336;44.696;10.622;2022-08-19T14:20:57;23.60;99.90
40638;DHT22;26336;44.696;10.622;2022-08-19T14:24:01;23.60;99.90
40638;DHT22;26336;44.696;10.622;2022-08-19T14:27:06;23.60;99.90
40638;DHT22;26336;44.696;10.622;2022-08-19T14:30:13;23.60;99.90
40638;DHT22;26336;44.696;10.622;2022-08-19T14:33:18;23.60;99.90
40638;DHT22;26336;44.696;10.622;2022-08-19T14:36:22;23.60;99.90
40638;DHT22;26336;44.696;10.622;2022-08-19T14:39:26;23.70;99.90
40638;DHT22;26336;44.696;10.622;2022-08-19T14:42:30;23.70;99.90
40638;DHT22;26336;44.696;10.622;2022-08-19T14:45:36;23.60;99.90
40638;DHT22;26336;44.696;10.622;2022-08-19T14:48:41;23.70;99.90
40638;DHT22;26336;44.696;10.622;2022-08-19T14:51:45;23.70;99.90
40638;DHT22;26336;44.696;10.622;2022-08-19T14:54:50;23.70;99.90
40638;DHT22;26336;44.696;10.622;2022-08-19T14:57:55;23.70;99.90
40638;DHT22;26336;44.696;10.622;2022-08-19T15:00:59;23.70;99.90
40638;DHT22;26336;44.696;10.622;2022-08-19T15:04:03;23.80;99.90
40638;DHT22;26336;44.696;10.622;2022-08-19T15:07:07;23.80;99.90
40638;DHT22;26336;44.696;10.622;2022-08-19T15:10:12;23.90;99.90
40638;DHT22;26336;44.696;10.622;2022-08-19T15:13:16;23.90;99.90
40638;DHT22;26336;44.696;10.622;2022-08-19T15:16:21;23.90;99.90
40638;DHT22;26336;44.696;10.622;2022-08-19T15:19:26;24.00;99.90
40638;DHT22;26336;44.696;10.622;2022-08-19T15:22:30;24.00;99.60
40638;DHT22;26336;44.696;10.622;2022-08-19T15:25:36;24.10;99.60
40638;DHT22;26336;44.696;10.622;2022-08-19T15:28:41;24.20;99.80
40638;DHT22;26336;44.696;10.622;2022-08-19T15:31:45;24.20;99.90
40638;DHT22;26336;44.696;10.622;2022-08-19T15:34:49;24.20;99.90
40638;DHT22;26336;44.696;10.622;2022-08-19T15:37:54;24.20;99.90
40638;DHT22;26336;44.696;10.622;2022-08-19T15:41:00;24.30;99.90
40638;DHT22;26336;44.696;10.622;2022-08-19T15:44:24;24.20;99.90
40638;DHT22;26336;44.696;10.622;2022-08-19T15:47:28;24.30;99.90
40638;DHT22;26336;44.696;10.622;2022-08-19T15:50:33;24.30;99.90
40638;DHT22;26336;44.696;10.622;2022-08-19T15:53:38;24.30;99.90
40638;DHT22;26336;44.696;10.622;2022-08-19T15:56:44;24.40;99.90
40638;DHT22;26336;44.696;10.622;2022-08-19T16:00:06;24.40;99.90
40638;DHT22;26336;44.696;10.622;2022-08-19T16:03:30;24.50;99.90
40638;DHT22;26336;44.696;10.622;2022-08-19T16:06:55;24.40;99.90
40638;DHT22;26336;44.696;10.622;2022-08-19T16:09:59;24.40;99.90
40638;DHT22;26336;44.696;10.622;2022-08-19T16:13:04;24.30;99.90
40638;DHT22;26336;44.696;10.622;2022-08-19T16:16:09;24.30;99.90
40638;DHT22;26336;44.696;10.622;2022-08-19T16:19:15;24.30;99.90
40638;DHT22;26336;44.696;10.622;2022-08-19T16:22:19;24.30;99.90
40638;DHT22;26336;44.696;10.622;2022-08-19T16:25:26;24.30;99.90
40638;DHT22;26336;44.696;10.622;2022-08-19T16:28:31;24.40;99.90
40638;DHT22;26336;44.696;10.622;2022-08-19T16:31:36;24.30;99.90
40638;DHT22;26336;44.696;10.622;2022-08-19T16:34:41;24.30;99.90
40638;DHT22;26336;44.696;10.622;2022-08-19T16:37:45;24.30;99.90
40638;DHT22;26336;44.696;10.622;2022-08-19T16:40:49;24.30;99.90
40638;DHT22;26336;44.696;10.622;2022-08-19T16:43:56;24.40;99.90
40638;DHT22;26336;44.696;10.622;2022-08-19T16:47:00;24.40;99.90
40638;DHT22;26336;44.696;10.622;2022-08-19T16:50:04;24.40;99.90
40638;DHT22;26336;44.696;10.622;2022-08-19T16:53:10;24.40;99.90
40638;DHT22;26336;44.696;10.622;2022-08-19T16:56:14;24.30;99.90
40638;DHT22;26336;44.696;10.622;2022-08-19T16:59:18;24.30;99.90
40638;DHT22;26336;44.696;10.622;2022-08-19T17:02:22;24.30;99.90
40638;DHT22;26336;44.696;10.622;2022-08-19T17:05:26;24.30;99.90
40638;DHT22;26336;44.696;10.622;2022-08-19T17:08:31;24.30;99.90
40638;DHT22;26336;44.696;10.622;2022-08-19T17:11:35;24.20;99.90
40638;DHT22;26336;44.696;10.622;2022-08-19T17:14:39;24.20;99.90
40638;DHT22;26336;44.696;10.622;2022-08-19T17:17:43;24.10;99.90
40638;DHT22;26336;44.696;10.622;2022-08-19T17:20:48;24.10;99.90
40638;DHT22;26336;44.696;10.622;2022-08-19T17:23:55;24.10;99.90
40638;DHT22;26336;44.696;10.622;2022-08-19T17:26:59;24.10;99.90
40638;DHT22;26336;44.696;10.622;2022-08-19T17:30:04;24.10;99.90
40638;DHT22;26336;44.696;10.622;2022-08-19T17:33:09;24.10;99.90
40638;DHT22;26336;44.696;10.622;2022-08-19T17:36:23;24.10;99.90
40638;DHT22;26336;44.696;10.622;2022-08-19T17:39:29;24.10;99.90
40638;DHT22;26336;44.696;10.622;2022-08-19T17:42:33;24.10;99.90
40638;DHT22;26336;44.696;10.622;2022-08-19T17:45:39;24.10;99.90
40638;DHT22;26336;44.696;10.622;2022-08-19T17:48:43;24.10;99.90
40638;DHT22;26336;44.696;10.622;2022-08-19T17:51:48;24.00;99.90
40638;DHT22;26336;44.696;10.622;2022-08-19T17:54:52;23.90;99.90
40638;DHT22;26336;44.696;10.622;2022-08-19T17:57:57;23.90;99.90
40638;DHT22;26336;44.696;10.622;2022-08-19T18:01:01;23.90;99.90
40638;DHT22;26336;44.696;10.622;2022-08-19T18:04:05;23.80;99.90
40638;DHT22;26336;44.696;10.622;2022-08-19T18:07:10;23.80;99.90
40638;DHT22;26336;44.696;10.622;2022-08-19T18:10:13;23.80;99.90
40638;DHT22;26336;44.696;10.622;2022-08-19T18:13:17;23.70;99.90
40638;DHT22;26336;44.696;10.622;2022-08-19T18:16:22;23.70;99.90
40638;DHT22;26336;44.696;10.622;2022-08-19T18:19:26;23.70;99.90
40638;DHT22;26336;44.696;10.622;2022-08-19T18:22:33;23.60;99.90
40638;DHT22;26336;44.696;10.622;2022-08-19T18:25:38;23.60;99.90
40638;DHT22;26336;44.696;10.622;2022-08-19T18:28:43;23.60;99.90
40638;DHT22;26336;44.696;10.622;2022-08-19T18:31:47;23.50;99.90
40638;DHT22;26336;44.696;10.622;2022-08-19T18:34:52;23.50;99.90
40638;DHT22;26336;44.696;10.622;2022-08-19T18:37:59;23.50;99.90
40638;DHT22;26336;44.696;10.622;2022-08-19T18:41:03;23.40;99.90
40638;DHT22;26336;44.696;10.622;2022-08-19T18:44:26;23.30;99.90
40638;DHT22;26336;44.696;10.622;2022-08-19T18:47:48;23.20;99.90
40638;DHT22;26336;44.696;10.622;2022-08-19T18:51:11;23.20;99.90
40638;DHT22;26336;44.696;10.622;2022-08-19T18:54:17;23.20;99.90
40638;DHT22;26336;44.696;10.622;2022-08-19T18:57:22;23.20;99.90
40638;DHT22;26336;44.696;10.622;2022-08-19T19:00:28;23.20;99.90
40638;DHT22;26336;44.696;10.622;2022-08-19T19:03:32;23.20;99.90
40638;DHT22;26336;44.696;10.622;2022-08-19T19:06:38;23.10;99.90
40638;DHT22;26336;44.696;10.622;2022-08-19T19:09:44;23.10;99.90
40638;DHT22;26336;44.696;10.622;2022-08-19T19:12:53;23.10;99.90
40638;DHT22;26336;44.696;10.622;2022-08-19T19:15:57;23.10;99.90
40638;DHT22;26336;44.696;10.622;2022-08-19T19:19:04;23.20;99.90
40638;DHT22;26336;44.696;10.622;2022-08-19T19:22:13;23.10;99.90
40638;DHT22;26336;44.696;10.622;2022-08-19T19:25:19;23.20;99.90
40638;DHT22;26336;44.696;10.622;2022-08-19T19:28:23;23.20;99.90
40638;DHT22;26336;44.696;10.622;2022-08-19T19:31:31;23.10;99.90